Time;durP1;ratioP1;P1;durP2;ratioP2;P2;SDS_P1;SDS_P2;PMS_P1;PMS_P2;Temp;Humidity;BMP_temperature;BMP_pressure;BME280_temperature;BME280_humidity;BME280_pressure;Samples;Min_cycle;Max_cycle;Signal;HPM_P1;HPM_P2
2021/07/10 00:00:05;;;;;;;;;;;;;;;18.89;63.02;98383.77;1662635;84;20839;-88
2021/07/10 00:02:33;;;;;;;;;;;;;;;18.87;63.06;98381.79;1682691;82;20222;-88
2021/07/10 00:05:03;;;;;;;;;;;;;;;18.83;63.06;98384.41;1682503;84;25837;-87
2021/07/10 00:07:29;;;;;;;;;;;;;;;18.82;63.10;98389.39;1676652;82;22091;-88
2021/07/10 00:09:58;;;;;;;;;;;;;;;18.84;63.15;98396.67;1682814;82;26262;-87
2021/07/10 00:12:24;;;;;;;;;;;;;;;18.83;63.19;98389.70;1673239;84;24408;-87
2021/07/10 00:14:52;;;;;;;;;;;;;;;18.84;63.24;98384.25;1679400;84;20251;-88
2021/07/10 00:17:17;;;;;;;;;;;;;;;18.82;63.28;98399.48;1652533;85;24864;-88
2021/07/10 00:19:43;;;;;;;;;;;;;;;18.79;63.33;98399.81;1654341;85;20820;-88
2021/07/10 00:22:09;;;;;;;;;;;;;;;18.78;63.35;98398.14;1679082;84;21182;-88
2021/07/10 00:24:41;;;;;;;;;;;;;;;18.73;63.37;98395.98;1678636;83;20826;-88
2021/07/10 00:27:03;;;;;;;;;;;;;;;18.73;63.42;98407.08;1670267;84;20467;-88
2021/07/10 00:29:35;;;;;;;;;;;;;;;18.71;63.46;98417.83;1665912;84;20635;-88
2021/07/10 00:32:01;;;;;;;;;;;;;;;18.71;63.53;98417.03;1675803;83;21997;-88
2021/07/10 00:34:30;;;;;;;;;;;;;;;18.67;63.54;98419.14;1654559;84;21224;-88
2021/07/10 00:36:59;;;;;;;;;;;;;;;18.65;63.58;98415.84;1689070;84;25188;-88
2021/07/10 00:39:25;;;;;;;;;;;;;;;18.62;63.64;98418.79;1670892;84;20373;-88
2021/07/10 00:41:51;;;;;;;;;;;;;;;18.60;63.70;98423.93;1685016;84;24794;-88
2021/07/10 00:44:17;;;;;;;;;;;;;;;18.55;63.74;98412.45;1659281;85;20243;-84
2021/07/10 00:46:43;;;;;;;;;;;;;;;18.51;63.79;98415.05;1662629;85;20983;-84
2021/07/10 00:49:12;;;;;;;;;;;;;;;18.47;63.83;98422.16;1656055;85;20233;-84
2021/07/10 00:51:38;;;;;;;;;;;;;;;18.43;63.88;98434.90;1683109;84;20259;-86
2021/07/10 00:54:04;;;;;;;;;;;;;;;18.43;63.95;98435.39;1639604;86;20786;-85
2021/07/10 00:56:32;;;;;;;;;;;;;;;18.39;64.02;98436.17;1688578;84;20269;-86
2021/07/10 00:58:58;;;;;;;;;;;;;;;18.36;64.06;98443.12;1690925;84;26227;-85
2021/07/10 01:01:25;;;;;;;;;;;;;;;18.35;64.15;98445.43;1695402;84;24449;-85
2021/07/10 01:04:09;;;;;;;;;;;;;;;18.33;64.19;98447.39;1681078;84;20343;-86
2021/07/10 01:06:35;;;;;;;;;;;;;;;18.33;64.28;98450.05;1649761;85;25703;-87
2021/07/10 01:09:03;;;;;;;;;;;;;;;18.35;64.39;98452.89;1684085;83;21988;-84
2021/07/10 01:11:29;;;;;;;;;;;;;;;18.38;64.45;98451.77;1682248;85;20970;-85
2021/07/10 01:13:58;;;;;;;;;;;;;;;18.42;64.50;98443.00;1684532;85;24506;-85
2021/07/10 01:16:24;;;;;;;;;;;;;;;18.41;64.56;98440.84;1682768;85;20293;-84
2021/07/10 01:18:50;;;;;;;;;;;;;;;18.37;64.60;98440.33;1680692;85;20753;-85
2021/07/10 01:21:16;;;;;;;;;;;;;;;18.33;64.63;98437.63;1680881;85;22144;-84
2021/07/10 01:23:44;;;;;;;;;;;;;;;18.28;64.65;98433.30;1682532;84;21028;-86
2021/07/10 01:26:11;;;;;;;;;;;;;;;18.24;64.71;98434.59;1679070;84;23877;-86
2021/07/10 01:28:40;;;;;;;;;;;;;;;18.19;64.78;98440.02;1676241;84;20699;-88
2021/07/10 01:31:06;;;;;;;;;;;;;;;18.14;64.80;98440.98;1660169;85;24803;-87
2021/07/10 01:33:32;;;;;;;;;;;;;;;18.10;64.87;98442.28;1686279;83;21798;-87
2021/07/10 01:35:58;;;;;;;;;;;;;;;18.03;64.95;98442.06;1697427;83;26063;-87
2021/07/10 01:38:29;;;;;;;;;;;;;;;17.97;65.00;98436.88;1684585;83;23880;-87
2021/07/10 01:40:56;;;;;;;;;;;;;;;17.94;65.06;98427.94;1677611;84;20207;-87
2021/07/10 01:43:22;;;;;;;;;;;;;;;17.90;65.17;98425.72;1684029;83;24938;-87
2021/07/10 01:45:48;;;;;;;;;;;;;;;17.87;65.25;98428.69;1650412;85;22053;-87
2021/07/10 01:48:15;;;;;;;;;;;;;;;17.86;65.33;98423.89;1681463;83;26796;-87
2021/07/10 01:50:43;;;;;;;;;;;;;;;17.83;65.40;98426.85;1701270;83;25288;-87
2021/07/10 01:53:12;;;;;;;;;;;;;;;17.81;65.50;98416.89;1665565;84;20143;-86
2021/07/10 01:55:38;;;;;;;;;;;;;;;17.76;65.56;98405.10;1679545;83;24842;-87
2021/07/10 01:58:04;;;;;;;;;;;;;;;17.73;65.61;98404.09;1695368;83;22222;-87
2021/07/10 02:00:32;;;;;;;;;;;;;;;17.72;65.72;98410.37;1681395;82;21275;-86
2021/07/10 02:03:01;;;;;;;;;;;;;;;17.71;65.81;98413.50;1657765;85;24501;-87
2021/07/10 02:05:30;;;;;;;;;;;;;;;17.70;65.89;98413.65;1694015;82;20226;-87
2021/07/10 02:08:00;;;;;;;;;;;;;;;17.70;65.97;98414.48;1660120;84;24813;-86
2021/07/10 02:10:27;;;;;;;;;;;;;;;17.68;66.05;98413.79;1689828;83;22232;-87
2021/07/10 02:13:01;;;;;;;;;;;;;;;17.67;66.13;98420.59;1681524;84;26807;-87
2021/07/10 02:15:27;;;;;;;;;;;;;;;17.67;66.20;98425.88;1655838;85;24559;-87
2021/07/10 02:17:56;;;;;;;;;;;;;;;17.65;66.28;98424.70;1701666;83;20235;-87
2021/07/10 02:20:23;;;;;;;;;;;;;;;17.65;66.34;98422.05;1671017;85;24744;-87
2021/07/10 02:22:51;;;;;;;;;;;;;;;17.66;66.42;98422.40;1689283;83;22091;-87
2021/07/10 02:25:21;;;;;;;;;;;;;;;17.68;66.48;98424.38;1672242;84;25555;-87
2021/07/10 02:27:47;;;;;;;;;;;;;;;17.71;66.57;98421.45;1681364;83;25339;-87
2021/07/10 02:30:15;;;;;;;;;;;;;;;17.73;66.66;98423.43;1682873;84;20276;-87
2021/07/10 02:32:41;;;;;;;;;;;;;;;17.75;66.71;98420.64;1686313;84;24854;-87
2021/07/10 02:35:09;;;;;;;;;;;;;;;17.77;66.78;98425.30;1680344;83;22204;-87
2021/07/10 02:37:39;;;;;;;;;;;;;;;17.76;66.85;98424.47;1685066;83;26722;-88
2021/07/10 02:40:10;;;;;;;;;;;;;;;17.74;66.90;98419.80;1691058;84;24582;-87
2021/07/10 02:42:36;;;;;;;;;;;;;;;17.78;66.93;98419.03;1689379;84;20813;-88
2021/07/10 02:45:04;;;;;;;;;;;;;;;17.81;66.96;98424.00;1690156;83;20229;-87
2021/07/10 02:47:33;;;;;;;;;;;;;;;17.84;66.97;98428.98;1664061;84;22893;-87
2021/07/10 02:49:59;;;;;;;;;;;;;;;17.85;66.99;98434.62;1672630;84;25967;-87
2021/07/10 02:52:25;;;;;;;;;;;;;;;17.79;66.98;98440.03;1655730;85;24653;-87
2021/07/10 02:54:51;;;;;;;;;;;;;;;17.76;67.02;98439.52;1683437;84;20272;-87
2021/07/10 02:57:18;;;;;;;;;;;;;;;17.76;67.03;98438.19;1646661;85;20229;-87
2021/07/10 02:59:44;;;;;;;;;;;;;;;17.77;67.07;98440.70;1686500;84;21998;-87
2021/07/10 03:02:11;;;;;;;;;;;;;;;17.80;67.11;98444.34;1687925;84;26017;-87
2021/07/10 03:04:37;;;;;;;;;;;;;;;17.80;67.14;98440.38;1688506;84;24389;-86
2021/07/10 03:07:08;;;;;;;;;;;;;;;17.75;67.15;98453.23;1688589;84;20630;-86
2021/07/10 03:09:36;;;;;;;;;;;;;;;17.76;67.17;98454.08;1687884;82;24808;-87
2021/07/10 03:12:08;;;;;;;;;;;;;;;17.76;67.20;98453.59;1656302;85;22728;-87
2021/07/10 03:14:34;;;;;;;;;;;;;;;17.77;67.20;98457.91;1694551;84;25991;-86
2021/07/10 03:17:00;;;;;;;;;;;;;;;17.75;67.21;98451.08;1693261;84;20289;-87
2021/07/10 03:19:26;;;;;;;;;;;;;;;17.72;67.25;98452.72;1663198;85;20469;-87
2021/07/10 03:21:58;;;;;;;;;;;;;;;17.71;67.27;98450.56;1696198;84;20883;-87
2021/07/10 03:24:24;;;;;;;;;;;;;;;17.67;67.32;98442.59;1689191;84;22098;-86
2021/07/10 03:26:50;;;;;;;;;;;;;;;17.68;67.34;98448.20;1690091;83;25834;-86
2021/07/10 03:29:16;;;;;;;;;;;;;;;17.67;67.38;98449.70;1686606;84;24526;-87
2021/07/10 03:31:42;;;;;;;;;;;;;;;17.65;67.45;98454.30;1682012;84;20276;-86
2021/07/10 03:34:08;;;;;;;;;;;;;;;17.63;67.47;98453.61;1666972;84;24834;-86
2021/07/10 03:36:35;;;;;;;;;;;;;;;17.63;67.49;98447.83;1637243;86;22069;-86
2021/07/10 03:39:01;;;;;;;;;;;;;;;17.65;67.53;98447.69;1686717;84;21698;-86
2021/07/10 03:41:27;;;;;;;;;;;;;;;17.66;67.55;98443.57;1673895;84;20925;-86
2021/07/10 03:43:53;;;;;;;;;;;;;;;17.69;67.58;98444.58;1688610;84;20247;-86
2021/07/10 03:46:19;;;;;;;;;;;;;;;17.69;67.61;98443.25;1651989;85;20791;-86
2021/07/10 03:48:45;;;;;;;;;;;;;;;17.70;67.62;98448.06;1676245;84;22060;-86
2021/07/10 03:51:11;;;;;;;;;;;;;;;17.69;67.67;98452.52;1661689;84;21222;-86
2021/07/10 03:53:37;;;;;;;;;;;;;;;17.71;67.67;98448.41;1680874;84;24411;-86
2021/07/10 03:56:03;;;;;;;;;;;;;;;17.70;67.68;98449.38;1664250;84;21125;-86
2021/07/10 03:58:32;;;;;;;;;;;;;;;17.66;67.70;98446.22;1668446;85;25500;-87
2021/07/10 04:01:04;;;;;;;;;;;;;;;17.64;67.70;98447.34;1701811;83;22844;-86
2021/07/10 04:03:31;;;;;;;;;;;;;;;17.57;67.71;98453.69;1683838;84;26042;-87
2021/07/10 04:05:57;;;;;;;;;;;;;;;17.54;67.75;98457.48;1628998;87;24720;-86
2021/07/10 04:08:23;;;;;;;;;;;;;;;17.51;67.77;98463.06;1624398;87;20292;-85
2021/07/10 04:10:49;;;;;;;;;;;;;;;17.53;67.83;98464.23;1655739;84;24827;-85
2021/07/10 04:13:18;;;;;;;;;;;;;;;17.53;67.88;98468.20;1625193;86;37578;-85
2021/07/10 04:15:44;;;;;;;;;;;;;;;17.53;67.95;98471.69;1662252;84;26311;-85
2021/07/10 04:18:10;;;;;;;;;;;;;;;17.53;67.97;98465.56;1657797;85;20467;-85
2021/07/10 04:20:39;;;;;;;;;;;;;;;17.53;68.03;98467.72;1668999;85;20399;-85
2021/07/10 04:23:09;;;;;;;;;;;;;;;17.53;68.07;98465.56;1690973;84;24770;-86
2021/07/10 04:25:35;;;;;;;;;;;;;;;17.53;68.12;98474.33;1681279;84;20475;-85
2021/07/10 04:28:01;;;;;;;;;;;;;;;17.54;68.17;98476.01;1629121;85;26253;-85
2021/07/10 04:30:28;;;;;;;;;;;;;;;17.56;68.24;98483.28;1637386;85;20266;-86
2021/07/10 04:32:57;;;;;;;;;;;;;;;17.63;68.29;98484.05;1648232;86;20226;-85
2021/07/10 04:35:23;;;;;;;;;;;;;;;17.67;68.38;98482.30;1649693;85;24771;-85
2021/07/10 04:37:50;;;;;;;;;;;;;;;17.68;68.42;98477.31;1646324;85;22150;-85
2021/07/10 04:40:16;;;;;;;;;;;;;;;17.71;68.48;98478.36;1618651;88;21044;-85
2021/07/10 04:42:46;;;;;;;;;;;;;;;17.73;68.55;98477.70;1615809;88;24055;-84
2021/07/10 04:45:21;;;;;;;;;;;;;;;17.73;68.61;98475.05;1670773;85;20215;-85
2021/07/10 04:47:50;;;;;;;;;;;;;;;17.75;68.63;98475.74;1641402;87;24801;-85
2021/07/10 04:50:16;;;;;;;;;;;;;;;17.77;68.69;98472.95;1634986;87;21972;-85
2021/07/10 04:52:42;;;;;;;;;;;;;;;17.81;68.75;98480.44;1637017;87;25956;-85
2021/07/10 04:55:10;;;;;;;;;;;;;;;17.83;68.79;98477.16;1651071;85;25089;-84
2021/07/10 04:57:43;;;;;;;;;;;;;;;17.87;68.87;98479.83;1651699;85;20159;-84
2021/07/10 05:00:09;;;;;;;;;;;;;;;17.89;68.87;98479.17;1654658;86;24354;-86
2021/07/10 05:02:36;;;;;;;;;;;;;;;17.94;68.90;98483.55;1638548;87;22010;-86
2021/07/10 05:05:03;;;;;;;;;;;;;;;18.00;68.93;98490.54;1650298;85;26002;-86
2021/07/10 05:07:29;;;;;;;;;;;;;;;18.08;68.95;98489.27;1656631;85;24537;-85
2021/07/10 05:09:55;;;;;;;;;;;;;;;18.18;68.97;98491.33;1603646;86;20569;-87
2021/07/10 05:12:22;;;;;;;;;;;;;;;18.24;69.00;98484.94;1641401;87;20283;-86
2021/07/10 05:14:50;;;;;;;;;;;;;;;18.36;69.04;98490.82;1599834;87;21911;-85
2021/07/10 05:17:21;;;;;;;;;;;;;;;18.45;69.08;98489.88;1652130;85;26815;-85
2021/07/10 05:19:45;;;;;;;;;;;;;;;18.53;69.07;98489.95;1649899;86;24553;-85
2021/07/10 05:22:11;;;;;;;;;;;;;;;18.63;69.08;98493.36;1607782;87;20934;-85
2021/07/10 05:24:37;;;;;;;;;;;;;;;18.70;69.08;98495.73;1614829;88;24860;-85
2021/07/10 05:27:03;;;;;;;;;;;;;;;18.76;69.04;98499.05;1649804;85;20266;-85
2021/07/10 05:29:29;;;;;;;;;;;;;;;18.80;69.02;98504.41;1658773;86;26077;-85
2021/07/10 05:31:55;;;;;;;;;;;;;;;18.88;68.99;98506.73;1659726;85;20290;-85
2021/07/10 05:34:21;;;;;;;;;;;;;;;18.97;68.97;98504.00;1661290;85;20299;-85
2021/07/10 05:36:48;;;;;;;;;;;;;;;19.03;68.92;98509.16;1658499;85;24731;-86
2021/07/10 05:39:14;;;;;;;;;;;;;;;19.09;68.89;98505.88;1662057;85;22009;-86
2021/07/10 05:41:41;;;;;;;;;;;;;;;19.18;68.85;98510.22;1661914;85;20989;-87
2021/07/10 05:44:07;;;;;;;;;;;;;;;19.28;68.80;98510.92;1653526;85;25166;-85
2021/07/10 05:46:33;;;;;;;;;;;;;;;19.41;68.78;98520.61;1656911;85;20340;-85
2021/07/10 05:48:59;;;;;;;;;;;;;;;19.50;68.70;98522.81;1657185;85;24760;-85
2021/07/10 05:51:25;;;;;;;;;;;;;;;19.57;68.65;98519.36;1667121;85;21960;-85
2021/07/10 05:53:52;;;;;;;;;;;;;;;19.62;68.58;98513.06;1644580;87;25938;-85
2021/07/10 05:56:17;;;;;;;;;;;;;;;19.69;68.50;98519.89;1700285;82;24296;-85
2021/07/10 05:58:44;;;;;;;;;;;;;;;19.75;68.43;98523.69;1697266;82;21199;-85
2021/07/10 06:01:10;;;;;;;;;;;;;;;19.81;68.34;98521.72;1695573;83;24809;-87
2021/07/10 06:03:36;;;;;;;;;;;;;;;19.84;68.23;98524.06;1696653;83;22003;-86
2021/07/10 06:06:02;;;;;;;;;;;;;;;19.84;68.09;98527.55;1660015;86;26023;-86
2021/07/10 06:08:28;;;;;;;;;;;;;;;19.86;67.95;98530.02;1661906;85;24480;-86
2021/07/10 06:10:54;;;;;;;;;;;;;;;19.87;67.86;98527.21;1660629;85;20414;-86
2021/07/10 06:13:20;;;;;;;;;;;;;;;19.85;67.75;98533.70;1663140;86;25416;-86
2021/07/10 06:15:46;;;;;;;;;;;;;;;19.85;67.65;98545.16;1668135;85;20894;-86
2021/07/10 06:18:13;;;;;;;;;;;;;;;19.89;67.56;98544.33;1673840;85;26150;-86
2021/07/10 06:20:39;;;;;;;;;;;;;;;19.88;67.44;98542.66;1666953;85;24607;-86
2021/07/10 06:23:05;;;;;;;;;;;;;;;19.90;67.36;98541.52;1659753;86;20786;-86
2021/07/10 06:25:33;;;;;;;;;;;;;;;19.89;67.26;98544.33;1659485;86;24832;-86
2021/07/10 06:27:59;;;;;;;;;;;;;;;19.92;67.15;98550.63;1662673;84;22234;-86
2021/07/10 06:30:27;;;;;;;;;;;;;;;19.96;67.08;98551.48;1634148;87;26670;-86
2021/07/10 06:32:53;;;;;;;;;;;;;;;19.96;66.96;98546.67;1664699;86;24698;-86
2021/07/10 06:35:19;;;;;;;;;;;;;;;20.00;66.85;98549.33;1628907;87;20371;-86
2021/07/10 06:37:45;;;;;;;;;;;;;;;20.00;66.77;98550.16;1659524;86;25496;-86
2021/07/10 06:40:13;;;;;;;;;;;;;;;20.03;66.69;98544.50;1659908;86;20237;-86
2021/07/10 06:42:40;;;;;;;;;;;;;;;20.09;66.63;98552.31;1658538;84;26026;-86
2021/07/10 06:45:08;;;;;;;;;;;;;;;20.12;66.54;98553.34;1665214;84;24409;-86
2021/07/10 06:47:34;;;;;;;;;;;;;;;20.18;66.43;98554.50;1677859;85;20250;-86
2021/07/10 06:50:00;;;;;;;;;;;;;;;20.21;66.36;98561.64;1634551;87;24736;-84
2021/07/10 06:52:26;;;;;;;;;;;;;;;20.26;66.26;98561.97;1683662;84;20302;-84
2021/07/10 06:54:52;;;;;;;;;;;;;;;20.29;66.20;98552.85;1672667;84;25987;-86
2021/07/10 06:57:18;;;;;;;;;;;;;;;20.28;66.11;98561.33;1677995;84;24387;-85
2021/07/10 06:59:46;;;;;;;;;;;;;;;20.31;66.02;98554.36;1650993;84;20449;-84
2021/07/10 07:02:12;;;;;;;;;;;;;;;20.33;65.95;98555.05;1655873;86;24911;-84
2021/07/10 07:04:40;;;;;;;;;;;;;;;20.36;65.90;98550.70;1688226;84;20928;-85
2021/07/10 07:07:07;;;;;;;;;;;;;;;20.37;65.83;98555.03;1687709;84;26002;-85
2021/07/10 07:09:35;;;;;;;;;;;;;;;20.36;65.72;98551.20;1683616;84;24615;-85
2021/07/10 07:12:02;;;;;;;;;;;;;;;20.35;65.63;98546.38;1659835;86;20475;-85
2021/07/10 07:14:28;;;;;;;;;;;;;;;20.41;65.62;98555.52;1651753;85;24754;-87
2021/07/10 07:16:58;;;;;;;;;;;;;;;20.44;65.58;98557.38;1692040;84;22089;-87
2021/07/10 07:19:26;;;;;;;;;;;;;;;20.49;65.58;98558.69;1681327;84;26186;-87
2021/07/10 07:21:52;;;;;;;;;;;;;;;20.53;65.56;98554.70;1680671;84;24691;-85
2021/07/10 07:24:18;;;;;;;;;;;;;;;20.51;65.46;98546.88;1671711;84;20471;-84
2021/07/10 07:26:44;;;;;;;;;;;;;;;20.64;65.44;98551.70;1654724;85;20523;-85
2021/07/10 07:29:13;;;;;;;;;;;;;;;20.88;65.49;98542.37;1677175;83;22040;-85
2021/07/10 07:31:39;;;;;;;;;;;;;;;21.10;65.48;98548.30;1682283;85;26036;-85
2021/07/10 07:34:05;;;;;;;;;;;;;;;21.26;65.43;98536.80;1683315;84;20243;-85
2021/07/10 07:36:32;;;;;;;;;;;;;;;21.25;65.28;98544.45;1689135;85;20347;-85
2021/07/10 07:38:58;;;;;;;;;;;;;;;21.27;65.17;98543.26;1720405;82;25408;-85
2021/07/10 07:41:24;;;;;;;;;;;;;;;21.23;65.00;98539.28;1691421;83;20310;-86
2021/07/10 07:43:50;;;;;;;;;;;;;;;21.22;64.79;98542.95;1687365;83;26211;-85
2021/07/10 07:46:16;;;;;;;;;;;;;;;21.26;64.64;98542.12;1661121;85;21642;-85
2021/07/10 07:48:43;;;;;;;;;;;;;;;21.29;64.46;98538.61;1689895;83;20491;-86
2021/07/10 07:51:11;;;;;;;;;;;;;;;21.27;64.33;98538.47;1694486;83;26014;-85
2021/07/10 07:53:37;;;;;;;;;;;;;;;21.33;64.22;98534.28;1692765;83;22171;-85
2021/07/10 07:56:04;;;;;;;;;;;;;;;21.38;64.12;98527.94;1693463;83;26174;-85
2021/07/10 07:58:30;;;;;;;;;;;;;;;21.45;64.00;98531.55;1686431;83;24486;-85
2021/07/10 08:00:56;;;;;;;;;;;;;;;21.51;63.93;98533.52;1689816;83;20226;-85
2021/07/10 08:03:22;;;;;;;;;;;;;;;21.54;63.85;98530.03;1693258;83;24704;-86
2021/07/10 08:05:48;;;;;;;;;;;;;;;21.57;63.77;98530.16;1693795;83;21920;-85
2021/07/10 08:08:20;;;;;;;;;;;;;;;21.65;63.72;98532.80;1688860;84;21116;-86
2021/07/10 08:10:47;;;;;;;;;;;;;;;21.73;63.72;98527.41;1690692;83;24458;-86
2021/07/10 08:13:13;;;;;;;;;;;;;;;21.77;63.56;98524.71;1689192;83;20323;-87
2021/07/10 08:15:43;;;;;;;;;;;;;;;21.85;63.42;98531.34;1692723;83;24420;-86
2021/07/10 08:18:21;;;;;;;;;;;;;;;22.02;63.40;98528.94;1681233;85;22751;-87
2021/07/10 08:20:47;;;;;;;;;;;;;;;22.13;63.29;98534.86;1672514;84;27094;-86
2021/07/10 08:23:16;;;;;;;;;;;;;;;22.11;63.03;98530.53;1678052;84;20241;-86
2021/07/10 08:25:42;;;;;;;;;;;;;;;22.13;62.82;98541.02;1665581;85;20143;-86
2021/07/10 08:28:08;;;;;;;;;;;;;;;22.19;62.61;98546.98;1680448;84;20237;-85
2021/07/10 08:30:35;;;;;;;;;;;;;;;22.29;62.47;98541.40;1689036;83;22957;-86
2021/07/10 08:33:01;;;;;;;;;;;;;;;22.35;62.33;98543.36;1689907;83;26878;-87
2021/07/10 08:35:27;;;;;;;;;;;;;;;22.39;62.13;98545.98;1663685;85;24511;-87
2021/07/10 08:37:53;;;;;;;;;;;;;;;22.46;61.96;98539.77;1637857;85;20279;-87
2021/07/10 08:40:21;;;;;;;;;;;;;;;22.53;61.78;98539.34;1665832;84;25032;-87
2021/07/10 08:42:47;;;;;;;;;;;;;;;22.60;61.57;98547.46;1698371;83;22905;-87
2021/07/10 08:45:14;;;;;;;;;;;;;;;22.62;61.42;98545.45;1695615;82;21088;-87
2021/07/10 08:47:41;;;;;;;;;;;;;;;22.62;61.35;98545.95;1656799;85;24364;-86
2021/07/10 08:50:09;;;;;;;;;;;;;;;22.60;61.26;98547.46;1692704;83;20268;-87
2021/07/10 08:52:41;;;;;;;;;;;;;;;22.61;61.12;98548.30;1698095;83;25421;-87
2021/07/10 08:55:13;;;;;;;;;;;;;;;22.61;60.95;98546.95;1683498;83;21806;-87
2021/07/10 08:57:36;;;;;;;;;;;;;;;22.66;60.79;98548.58;1701740;81;26079;-87
2021/07/10 09:00:04;;;;;;;;;;;;;;;22.77;60.72;98550.84;1695213;84;24474;-87
2021/07/10 09:02:32;;;;;;;;;;;;;;;22.84;60.59;98549.95;1683778;84;20423;-87
2021/07/10 09:05:01;;;;;;;;;;;;;;;22.95;60.46;98540.66;1685524;84;24848;-87
2021/07/10 09:07:27;;;;;;;;;;;;;;;23.06;60.38;98546.05;1677129;84;22188;-87
2021/07/10 09:09:53;;;;;;;;;;;;;;;23.21;60.34;98546.38;1689111;82;21038;-87
2021/07/10 09:12:29;;;;;;;;;;;;;;;23.35;60.28;98539.35;1677667;84;24499;-87
2021/07/10 09:14:56;;;;;;;;;;;;;;;23.43;60.13;98541.11;1660609;85;20235;-87
2021/07/10 09:17:24;;;;;;;;;;;;;;;23.44;59.95;98542.27;1679060;83;24833;-87
2021/07/10 09:19:52;;;;;;;;;;;;;;;23.46;59.75;98544.26;1691532;83;21991;-87
2021/07/10 09:22:30;;;;;;;;;;;;;;;23.44;59.55;98544.94;1689696;83;26663;-88
2021/07/10 09:24:57;;;;;;;;;;;;;;;23.43;59.38;98541.94;1693538;83;25306;-87
2021/07/10 09:27:23;;;;;;;;;;;;;;;23.41;59.21;98540.45;1689572;83;20696;-87
2021/07/10 09:29:49;;;;;;;;;;;;;;;23.42;59.03;98542.12;1690512;84;24775;-88
2021/07/10 09:32:19;;;;;;;;;;;;;;;23.48;58.96;98542.75;1688619;84;22274;-87
2021/07/10 09:34:48;;;;;;;;;;;;;;;23.50;58.82;98541.56;1685714;84;26027;-87
2021/07/10 09:37:19;;;;;;;;;;;;;;;23.53;58.68;98542.51;1689925;84;24507;-87
2021/07/10 09:39:56;;;;;;;;;;;;;;;23.50;58.55;98546.91;1688220;84;20196;-87
2021/07/10 09:42:27;;;;;;;;;;;;;;;23.57;58.44;98542.45;1685390;84;24840;-83
2021/07/10 09:44:55;;;;;;;;;;;;;;;23.65;58.36;98539.68;1676268;84;22106;-82
2021/07/10 09:47:35;;;;;;;;;;;;;;;23.71;58.23;98542.11;1693292;84;26849;-83
2021/07/10 09:50:03;;;;;;;;;;;;;;;23.76;58.08;98535.70;1659441;85;24551;-83
2021/07/10 09:52:31;;;;;;;;;;;;;;;23.82;57.89;98550.16;1690002;84;20332;-83
2021/07/10 09:55:01;;;;;;;;;;;;;;;23.89;57.78;98549.73;1693115;84;24821;-83
2021/07/10 09:57:30;;;;;;;;;;;;;;;23.93;57.69;98546.98;1688529;84;21253;-83
2021/07/10 09:59:58;;;;;;;;;;;;;;;23.98;57.55;98539.23;1689586;84;25956;-83
2021/07/10 10:02:25;;;;;;;;;;;;;;;24.02;57.43;98540.50;1691905;84;24396;-83
2021/07/10 10:04:52;;;;;;;;;;;;;;;24.00;57.19;98542.02;1685860;84;20287;-83
2021/07/10 10:07:21;;;;;;;;;;;;;;;24.10;57.00;98543.89;1689446;84;24962;-83
2021/07/10 10:09:58;;;;;;;;;;;;;;;24.19;56.83;98539.27;1681444;84;22187;-85
2021/07/10 10:12:24;;;;;;;;;;;;;;;24.21;56.70;98542.59;1687585;84;25989;-85
2021/07/10 10:14:52;;;;;;;;;;;;;;;24.04;56.45;98537.13;1687115;84;24676;-85
2021/07/10 10:17:22;;;;;;;;;;;;;;;24.01;56.35;98532.98;1687727;84;20515;-85
2021/07/10 10:19:48;;;;;;;;;;;;;;;24.02;56.23;98531.14;1680030;84;24942;-85
2021/07/10 10:22:15;;;;;;;;;;;;;;;23.94;55.99;98524.59;1685689;84;20849;-85
2021/07/10 10:24:43;;;;;;;;;;;;;;;23.91;55.81;98524.45;1688011;84;26729;-85
2021/07/10 10:27:10;;;;;;;;;;;;;;;23.89;55.71;98525.16;1686433;84;24500;-86
2021/07/10 10:29:36;;;;;;;;;;;;;;;23.94;55.67;98522.75;1687361;84;20168;-86
2021/07/10 10:32:03;;;;;;;;;;;;;;;23.95;55.50;98524.38;1693517;84;24769;-85
2021/07/10 10:34:29;;;;;;;;;;;;;;;23.89;55.36;98522.49;1687105;84;21695;-85
2021/07/10 10:36:56;;;;;;;;;;;;;;;23.86;55.23;98520.69;1685386;84;25968;-85
2021/07/10 10:39:24;;;;;;;;;;;;;;;23.88;55.08;98524.84;1687474;84;24471;-85
2021/07/10 10:41:57;;;;;;;;;;;;;;;23.84;54.85;98519.53;1689429;84;20271;-85
2021/07/10 10:44:24;;;;;;;;;;;;;;;23.96;54.79;98523.37;1691702;84;24771;-84
2021/07/10 10:47:08;;;;;;;;;;;;;;;24.12;54.78;98523.63;1683485;84;22876;-84
2021/07/10 10:49:41;;;;;;;;;;;;;;;24.24;54.72;98529.33;1686204;83;25921;-85
2021/07/10 10:52:26;;;;;;;;;;;;;;;24.38;54.69;98523.92;1689881;84;24725;-85
2021/07/10 10:54:54;;;;;;;;;;;;;;;24.45;54.57;98517.27;1691859;84;20340;-86
2021/07/10 10:57:30;;;;;;;;;;;;;;;24.51;54.37;98521.34;1686945;84;25655;-85
2021/07/10 10:59:56;;;;;;;;;;;;;;;24.49;54.20;98514.55;1689943;84;21949;-86
2021/07/10 11:02:32;;;;;;;;;;;;;;;24.52;54.11;98517.66;1690857;84;25981;-86
2021/07/10 11:04:59;;;;;;;;;;;;;;;24.62;54.04;98512.47;1709172;82;24327;-87
2021/07/10 11:07:30;;;;;;;;;;;;;;;24.70;53.93;98514.50;1684971;84;20217;-86
2021/07/10 11:10:04;;;;;;;;;;;;;;;24.72;53.76;98511.61;1692630;84;25403;-86
2021/07/10 11:12:54;;;;;;;;;;;;;;;24.73;53.65;98514.10;1688211;84;21982;-86
2021/07/10 11:15:28;;;;;;;;;;;;;;;24.69;53.45;98509.34;1691513;84;26053;-86
2021/07/10 11:17:56;;;;;;;;;;;;;;;24.72;53.32;98513.78;1647424;85;24440;-86
2021/07/10 11:20:47;;;;;;;;;;;;;;;24.85;53.33;98510.38;1657435;85;20163;-86
2021/07/10 11:23:13;;;;;;;;;;;;;;;24.97;53.31;98504.83;1685912;84;20507;-86
2021/07/10 11:25:41;;;;;;;;;;;;;;;25.03;53.22;98504.05;1690913;84;21964;-86
2021/07/10 11:28:13;;;;;;;;;;;;;;;24.97;52.96;98502.16;1662528;84;26788;-86
2021/07/10 11:30:49;;;;;;;;;;;;;;;24.89;52.86;98489.73;1690075;84;24607;-86
2021/07/10 11:36:07;;;;;;;;;;;;;;;25.10;52.66;98500.04;1691292;83;24934;-86
2021/07/10 11:38:41;;;;;;;;;;;;;;;25.17;52.63;98497.73;1680695;85;22016;-87
2021/07/10 11:41:09;;;;;;;;;;;;;;;25.25;52.55;98494.06;1678367;85;26158;-86
2021/07/10 11:43:37;;;;;;;;;;;;;;;25.25;52.48;98492.73;1679062;85;24517;-86
2021/07/10 11:46:04;;;;;;;;;;;;;;;25.11;52.18;98498.52;1678917;85;20309;-86
2021/07/10 11:48:32;;;;;;;;;;;;;;;25.21;52.13;98491.45;1691362;83;24745;-86
2021/07/10 11:51:00;;;;;;;;;;;;;;;25.36;52.14;98486.30;1691275;83;21498;-86
2021/07/10 11:53:28;;;;;;;;;;;;;;;25.48;52.06;98483.84;1664194;84;26829;-86
2021/07/10 11:55:57;;;;;;;;;;;;;;;25.33;51.80;98486.67;1691056;84;24552;-86
2021/07/10 11:58:22;;;;;;;;;;;;;;;25.07;51.58;98484.37;1693475;83;20215;-84
2021/07/10 12:00:48;;;;;;;;;;;;;;;25.00;51.48;98489.70;1663162;85;20838;-83
2021/07/10 12:03:22;;;;;;;;;;;;;;;24.97;51.40;98482.07;1692417;83;21940;-83
2021/07/10 12:05:50;;;;;;;;;;;;;;;24.87;51.23;98481.57;1686822;84;26068;-83
2021/07/10 12:08:18;;;;;;;;;;;;;;;24.80;51.19;98480.69;1690759;83;24567;-83
2021/07/10 12:10:45;;;;;;;;;;;;;;;24.94;51.23;98479.77;1660180;85;20282;-83
2021/07/10 12:13:13;;;;;;;;;;;;;;;25.01;51.15;98476.63;1663921;85;25637;-84
2021/07/10 12:15:47;;;;;;;;;;;;;;;25.01;51.04;98472.61;1692739;83;22171;-83
2021/07/10 12:18:13;;;;;;;;;;;;;;;25.11;51.04;98467.71;1659856;85;26016;-83
2021/07/10 12:20:44;;;;;;;;;;;;;;;25.18;50.94;98465.90;1692858;83;24675;-83
2021/07/10 12:23:12;;;;;;;;;;;;;;;25.29;50.95;98465.33;1689524;83;20171;-83
2021/07/10 12:25:43;;;;;;;;;;;;;;;25.32;50.85;98465.42;1688871;84;25710;-83
2021/07/10 12:28:10;;;;;;;;;;;;;;;25.26;50.69;98458.19;1690810;83;22602;-83
2021/07/10 12:30:40;;;;;;;;;;;;;;;25.14;50.51;98461.97;1673343;83;26015;-83
2021/07/10 12:33:08;;;;;;;;;;;;;;;25.22;50.58;98454.27;1662736;85;24541;-83
2021/07/10 12:35:34;;;;;;;;;;;;;;;25.24;50.45;98450.88;1620132;87;20285;-83
2021/07/10 12:38:10;;;;;;;;;;;;;;;25.34;50.51;98450.82;1657069;86;20297;-83
2021/07/10 12:40:39;;;;;;;;;;;;;;;25.50;50.52;98447.46;1686001;83;22077;-83
2021/07/10 12:43:05;;;;;;;;;;;;;;;25.59;50.47;98447.11;1685205;85;26065;-83
2021/07/10 12:45:31;;;;;;;;;;;;;;;25.58;50.35;98448.67;1685165;83;20865;-83
2021/07/10 12:48:01;;;;;;;;;;;;;;;25.59;50.34;98448.95;1685044;83;20472;-84
2021/07/10 12:50:28;;;;;;;;;;;;;;;25.51;50.21;98447.27;1691218;82;24775;-85
2021/07/10 12:52:59;;;;;;;;;;;;;;;25.59;50.19;98451.64;1658078;85;22099;-85